Estación de Purranque

Ultimos registro cada 15 minutos 87
Estación Fecha / Hora Temperatura Humedad Lluvia Velocidad Dirección Radiación Presion
87 Purranque 03-05-2026 21:30 9,8 98,5 0 1,7 20 0,6 1002,6
86 Purranque 03-05-2026 21:15 9,8 99,2 0 1,3 39 0,6 1002,5
85 Purranque 03-05-2026 21:00 9,8 99,4 0 1 10 0,6 1002,6
84 Purranque 03-05-2026 20:45 9,7 99,4 0 0,3 28 0,6 1002,3
83 Purranque 03-05-2026 20:30 9,6 99,2 0 0,7 17 0,6 1002,4
82 Purranque 03-05-2026 20:15 9,8 99,4 0 0,7 18 0,6 1002,2
81 Purranque 03-05-2026 20:00 9,7 99,3 0 0 49 0,6 1002
80 Purranque 03-05-2026 19:45 9,7 99,4 0 0 49 0,6 1002,2
79 Purranque 03-05-2026 19:30 10,2 99,5 0 0,3 51 0,6 1002,1
78 Purranque 03-05-2026 19:15 10,1 99,2 0 0 336 0,6 1002,1
77 Purranque 03-05-2026 19:00 10,1 98,9 0 0 336 0,6 1001,8
76 Purranque 03-05-2026 18:45 10,7 98,8 0 0,3 334 0,6 1001,5
75 Purranque 03-05-2026 18:30 10,9 98,9 0,2 1,3 338 0,6 1001,3
74 Purranque 03-05-2026 18:15 11 98,8 3,2 2,3 6 0,6 1001,2
73 Purranque 03-05-2026 18:00 11,3 97,8 0,8 2,7 15 0,6 1001,3
72 Purranque 03-05-2026 17:45 11,4 96,8 0 1,7 28 6,9 1001
71 Purranque 03-05-2026 17:30 11,6 95,7 0 1,7 20 9,4 1000,6
70 Purranque 03-05-2026 17:15 11,8 94,9 0 1,7 14 30,6 1000,5
69 Purranque 03-05-2026 17:00 12,8 93,6 0 1,7 22 94,4 1000,6
68 Purranque 03-05-2026 16:45 13,2 94,3 0 1,7 32 254,4 1000,6
67 Purranque 03-05-2026 16:30 11,9 96,5 0,2 2 358 61,9 1000,8
66 Purranque 03-05-2026 16:15 11,8 95,7 0,4 2,7 29 23,1 1000,4
65 Purranque 03-05-2026 16:00 12,4 93,3 0 2,3 28 50,6 1000,3
64 Purranque 03-05-2026 15:45 12,3 92,5 0 2,7 29 131,9 1000
63 Purranque 03-05-2026 15:30 12,4 93,7 0 2 39 135,6 1000
62 Purranque 03-05-2026 15:15 13,1 92 0 2,7 42 304,4 999,8
61 Purranque 03-05-2026 15:00 13,1 92,6 0 2,7 34 440,6 999,8
60 Purranque 03-05-2026 14:45 12,4 92,9 0 3 28 303,1 999,8
59 Purranque 03-05-2026 14:30 11,7 95,6 0 2,7 24 163,1 999,7
58 Purranque 03-05-2026 14:15 11,5 95,6 0 3 25 131,9 999,6
57 Purranque 03-05-2026 14:00 11,4 95,5 0 3,3 29 251,9 999,5
56 Purranque 03-05-2026 13:45 11,2 96,7 0 3,3 28 435,6 999,6
55 Purranque 03-05-2026 13:30 10,6 97,2 0 3,3 22 134,4 999,9
54 Purranque 03-05-2026 13:15 10,2 97,1 0 3,3 17 119,4 1000,1
53 Purranque 03-05-2026 13:00 10,2 97,5 0,4 3,3 17 288,1 1000
52 Purranque 03-05-2026 12:45 9,8 98,2 0,2 3 17 136,9 1000,3
51 Purranque 03-05-2026 12:30 9,5 98,4 0,8 2,7 4 71,9 1000,3
50 Purranque 03-05-2026 12:15 9,4 98,4 1,2 3,3 14 31,9 1000,3
49 Purranque 03-05-2026 12:00 9,4 97,6 1,2 4 25 59,4 999,8
48 Purranque 03-05-2026 11:45 9,6 96 0 4 29 79,4 999,5
47 Purranque 03-05-2026 11:30 9,6 95,8 0 3,7 25 94,4 999,2
46 Purranque 03-05-2026 11:15 9,6 95,2 0 4 32 168,1 999,1
45 Purranque 03-05-2026 11:00 9,3 96,1 0 3,7 32 155,6 999,3
44 Purranque 03-05-2026 10:45 9 95,7 0 3,3 34 66,9 999,3
43 Purranque 03-05-2026 10:30 8,9 96 0 3 32 74,4 999,4
42 Purranque 03-05-2026 10:15 8,7 96,6 0 3 34 30,6 999,5
41 Purranque 03-05-2026 10:00 8,9 96,8 0 3 27 40,6 999,5
40 Purranque 03-05-2026 09:45 8,8 96,2 0 3,3 27 49,4 999,5
39 Purranque 03-05-2026 09:30 8,7 96,1 0 3,7 28 51,9 999,4
38 Purranque 03-05-2026 09:15 8,4 96,9 0 3,7 31 61,9 999,3
37 Purranque 03-05-2026 09:00 8,2 97,5 0 3 34 38,1 999,3
36 Purranque 03-05-2026 08:45 8 97,7 0 2,7 35 14,4 999,4
35 Purranque 03-05-2026 08:30 7,9 97,4 0,2 3,3 29 10,6 999,4
34 Purranque 03-05-2026 08:15 7,7 97,8 0 2,7 31 6,9 999,3
33 Purranque 03-05-2026 08:00 7,7 98,3 0 2,3 29 0,6 999,3
32 Purranque 03-05-2026 07:45 7,7 98,1 0,4 2 25 0,6 999,4
31 Purranque 03-05-2026 07:30 7,8 98 0 2,3 37 0,6 999,5
30 Purranque 03-05-2026 07:15 7,9 97,9 0,2 2,3 37 0,6 999,4
29 Purranque 03-05-2026 07:00 7,8 97,7 0 2,7 41 0,6 999,4
28 Purranque 03-05-2026 06:45 7,6 97 0,2 2,3 28 0,6 999,4
27 Purranque 03-05-2026 06:30 7,6 95,4 0,2 2,3 22 0,6 999,5
26 Purranque 03-05-2026 06:15 7,3 95,2 0,2 2,7 20 0,6 999,5
25 Purranque 03-05-2026 06:00 7,3 92,1 0,2 4 17 0,6 999,6
24 Purranque 03-05-2026 05:45 7,6 90,3 0,6 3,3 20 0,6 999,5
23 Purranque 03-05-2026 05:30 8,1 90,4 0,6 2,3 20 0,6 999,6
22 Purranque 03-05-2026 05:15 8,2 89,4 0,6 1,3 14 0,6 999,7
21 Purranque 03-05-2026 05:00 8,7 86,6 0,2 1,7 15 0,6 999,8
20 Purranque 03-05-2026 04:45 8,9 83,6 0 2,3 29 0,6 999,3
19 Purranque 03-05-2026 04:30 8,5 84,6 0 2 39 0,6 999,2
18 Purranque 03-05-2026 04:15 8,4 85,2 0 2 42 0,6 999,2
17 Purranque 03-05-2026 04:00 7,9 89,3 0 1,7 39 0,6 999,9
16 Purranque 03-05-2026 03:45 7,1 93,2 0 0,7 32 0,6 1000,3
15 Purranque 03-05-2026 03:30 6,9 93 0,2 0,7 20 0,6 1000,8
14 Purranque 03-05-2026 03:15 6,9 91,9 0 1 24 0,6 1001
13 Purranque 03-05-2026 03:00 6,8 92,2 0 1 45 0,6 1000,9
12 Purranque 03-05-2026 02:45 6,7 91,7 0 1,3 10 0,6 1001,3
11 Purranque 03-05-2026 02:30 6,8 90,5 0 0,7 25 0,6 1001,6
10 Purranque 03-05-2026 02:15 6,5 91,6 0 0,7 34 0,6 1001,2
9 Purranque 03-05-2026 02:00 6,4 91,1 0 0,3 17 0,6 1001,6
8 Purranque 03-05-2026 01:45 6,5 91 0 1 32 0,6 1001,7
7 Purranque 03-05-2026 01:30 6,7 90,3 0 1,3 29 0,6 1001,8
6 Purranque 03-05-2026 01:15 6,4 90,3 0 1 15 0,6 1001,9
5 Purranque 03-05-2026 01:00 5,6 92,5 0 1 49 0,6 1001,7
4 Purranque 03-05-2026 00:45 5,7 91,1 0 0 39 0,6 1002,2
3 Purranque 03-05-2026 00:30 6,1 90,8 0 0,3 55 0,6 1002,1
2 Purranque 03-05-2026 00:15 6,5 89,9 0 1 46 0,6 1002,3
1 Purranque 03-05-2026 00:00 5,8 93,9 0 0,7 76 0,6 1002,2